sensor_id;sensor_type;location;lat;lon;timestamp;temperature;humidity
810;DHT22;387;48.772;9.186;2022-12-18T00:01:33;-6.80;88.10
810;DHT22;387;48.772;9.186;2022-12-18T00:04:01;-6.90;88.00
810;DHT22;387;48.772;9.186;2022-12-18T00:06:29;-6.90;88.00
810;DHT22;387;48.772;9.186;2022-12-18T00:08:56;-6.90;88.10
810;DHT22;387;48.772;9.186;2022-12-18T00:11:24;-6.80;88.10
810;DHT22;387;48.772;9.186;2022-12-18T00:13:51;-6.90;88.40
810;DHT22;387;48.772;9.186;2022-12-18T00:16:19;-6.90;88.40
810;DHT22;387;48.772;9.186;2022-12-18T00:18:53;-6.80;88.40
810;DHT22;387;48.772;9.186;2022-12-18T00:21:19;-6.80;88.60
810;DHT22;387;48.772;9.186;2022-12-18T00:23:46;-6.80;88.60
810;DHT22;387;48.772;9.186;2022-12-18T00:26:17;-6.80;88.60
810;DHT22;387;48.772;9.186;2022-12-18T00:28:44;-6.80;88.60
810;DHT22;387;48.772;9.186;2022-12-18T00:31:15;-6.80;88.60
810;DHT22;387;48.772;9.186;2022-12-18T00:33:41;-6.80;88.70
810;DHT22;387;48.772;9.186;2022-12-18T00:36:27;-6.80;88.60
810;DHT22;387;48.772;9.186;2022-12-18T00:38:54;-6.80;88.90
810;DHT22;387;48.772;9.186;2022-12-18T00:41:21;-6.80;88.90
810;DHT22;387;48.772;9.186;2022-12-18T00:44:12;-6.80;89.20
810;DHT22;387;48.772;9.186;2022-12-18T00:46:38;-6.80;89.20
810;DHT22;387;48.772;9.186;2022-12-18T00:49:03;-6.80;89.50
810;DHT22;387;48.772;9.186;2022-12-18T00:51:29;-6.80;89.50
810;DHT22;387;48.772;9.186;2022-12-18T00:53:55;-6.80;89.50
810;DHT22;387;48.772;9.186;2022-12-18T00:56:21;-6.80;89.60
810;DHT22;387;48.772;9.186;2022-12-18T00:58:47;-6.80;89.60
810;DHT22;387;48.772;9.186;2022-12-18T01:01:13;-6.80;89.50
810;DHT22;387;48.772;9.186;2022-12-18T01:03:39;-6.90;89.50
810;DHT22;387;48.772;9.186;2022-12-18T01:06:10;-7.00;89.30
810;DHT22;387;48.772;9.186;2022-12-18T01:08:37;-7.00;89.50
810;DHT22;387;48.772;9.186;2022-12-18T01:11:14;-7.00;89.50
810;DHT22;387;48.772;9.186;2022-12-18T01:13:40;-7.00;89.50
810;DHT22;387;48.772;9.186;2022-12-18T01:16:06;-7.00;89.60
810;DHT22;387;48.772;9.186;2022-12-18T01:18:31;-7.00;89.60
810;DHT22;387;48.772;9.186;2022-12-18T01:20:57;-6.90;89.60
810;DHT22;387;48.772;9.186;2022-12-18T01:23:22;-7.00;89.60
810;DHT22;387;48.772;9.186;2022-12-18T01:25:48;-6.90;89.70
810;DHT22;387;48.772;9.186;2022-12-18T01:28:13;-6.80;89.70
810;DHT22;387;48.772;9.186;2022-12-18T01:30:39;-6.80;89.60
810;DHT22;387;48.772;9.186;2022-12-18T01:33:05;-6.80;89.60
810;DHT22;387;48.772;9.186;2022-12-18T01:35:31;-6.80;89.50
810;DHT22;387;48.772;9.186;2022-12-18T01:37:57;-6.90;89.30
810;DHT22;387;48.772;9.186;2022-12-18T01:40:22;-6.80;89.50
810;DHT22;387;48.772;9.186;2022-12-18T01:42:52;-6.70;89.60
810;DHT22;387;48.772;9.186;2022-12-18T01:47:56;-6.70;89.60
810;DHT22;387;48.772;9.186;2022-12-18T01:50:34;-6.60;89.50
810;DHT22;387;48.772;9.186;2022-12-18T01:53:11;-6.70;89.60
810;DHT22;387;48.772;9.186;2022-12-18T01:55:42;-6.70;89.60
810;DHT22;387;48.772;9.186;2022-12-18T01:58:08;-6.70;89.70
810;DHT22;387;48.772;9.186;2022-12-18T02:00:34;-6.70;89.60
810;DHT22;387;48.772;9.186;2022-12-18T02:02:59;-6.60;89.70
810;DHT22;387;48.772;9.186;2022-12-18T02:08:21;-6.40;90.00
810;DHT22;387;48.772;9.186;2022-12-18T02:11:13;-6.30;89.90
810;DHT22;387;48.772;9.186;2022-12-18T02:16:40;-6.30;89.50
810;DHT22;387;48.772;9.186;2022-12-18T02:22:16;-6.50;89.00
810;DHT22;387;48.772;9.186;2022-12-18T02:28:00;-6.40;89.00
810;DHT22;387;48.772;9.186;2022-12-18T02:30:30;-6.50;88.70
810;DHT22;387;48.772;9.186;2022-12-18T02:32:57;-6.50;88.60
810;DHT22;387;48.772;9.186;2022-12-18T02:35:28;-6.60;88.60
810;DHT22;387;48.772;9.186;2022-12-18T02:37:54;-6.60;88.40
810;DHT22;387;48.772;9.186;2022-12-18T02:40:22;-6.60;88.60
810;DHT22;387;48.772;9.186;2022-12-18T02:42:49;-6.50;88.70
810;DHT22;387;48.772;9.186;2022-12-18T02:45:14;-6.60;88.60
810;DHT22;387;48.772;9.186;2022-12-18T02:47:43;-6.50;88.60
810;DHT22;387;48.772;9.186;2022-12-18T03:01:34;-6.60;88.00
810;DHT22;387;48.772;9.186;2022-12-18T03:04:33;-6.60;88.10
810;DHT22;387;48.772;9.186;2022-12-18T03:07:01;-6.60;88.30
810;DHT22;387;48.772;9.186;2022-12-18T03:09:32;-6.50;88.40
810;DHT22;387;48.772;9.186;2022-12-18T03:12:06;-6.40;88.70
810;DHT22;387;48.772;9.186;2022-12-18T03:17:31;-6.30;88.90
810;DHT22;387;48.772;9.186;2022-12-18T03:20:02;-6.30;88.90
810;DHT22;387;48.772;9.186;2022-12-18T03:22:30;-6.30;88.90
810;DHT22;387;48.772;9.186;2022-12-18T03:24:59;-6.30;88.70
810;DHT22;387;48.772;9.186;2022-12-18T03:27:27;-6.30;88.70
810;DHT22;387;48.772;9.186;2022-12-18T03:30:06;-6.20;88.40
810;DHT22;387;48.772;9.186;2022-12-18T03:35:07;-6.30;88.10
810;DHT22;387;48.772;9.186;2022-12-18T03:37:33;-6.30;88.00
810;DHT22;387;48.772;9.186;2022-12-18T03:39:59;-6.30;88.00
810;DHT22;387;48.772;9.186;2022-12-18T03:42:59;-6.30;87.70
810;DHT22;387;48.772;9.186;2022-12-18T03:45:24;-6.40;87.40
810;DHT22;387;48.772;9.186;2022-12-18T03:48:16;-6.40;87.30
810;DHT22;387;48.772;9.186;2022-12-18T03:50:55;-6.60;86.90
810;DHT22;387;48.772;9.186;2022-12-18T03:53:41;-6.70;86.90
810;DHT22;387;48.772;9.186;2022-12-18T03:56:09;-6.80;86.90
810;DHT22;387;48.772;9.186;2022-12-18T03:58:37;-6.80;87.00
810;DHT22;387;48.772;9.186;2022-12-18T04:01:05;-6.80;87.10
810;DHT22;387;48.772;9.186;2022-12-18T04:03:33;-6.90;87.30
810;DHT22;387;48.772;9.186;2022-12-18T04:06:00;-6.90;87.30
810;DHT22;387;48.772;9.186;2022-12-18T04:08:27;-6.90;87.60
810;DHT22;387;48.772;9.186;2022-12-18T04:10:53;-6.90;87.60
810;DHT22;387;48.772;9.186;2022-12-18T04:13:24;-6.90;87.40
810;DHT22;387;48.772;9.186;2022-12-18T04:15:49;-7.00;87.10
810;DHT22;387;48.772;9.186;2022-12-18T04:18:15;-7.00;86.90
810;DHT22;387;48.772;9.186;2022-12-18T04:20:40;-7.10;86.90
810;DHT22;387;48.772;9.186;2022-12-18T04:23:06;-7.10;86.80
810;DHT22;387;48.772;9.186;2022-12-18T04:25:32;-7.20;86.80
810;DHT22;387;48.772;9.186;2022-12-18T04:27:57;-7.20;86.80
810;DHT22;387;48.772;9.186;2022-12-18T04:30:23;-7.20;86.90
810;DHT22;387;48.772;9.186;2022-12-18T04:32:48;-7.20;86.90
810;DHT22;387;48.772;9.186;2022-12-18T04:35:14;-7.20;87.00
810;DHT22;387;48.772;9.186;2022-12-18T04:37:39;-7.20;87.00
810;DHT22;387;48.772;9.186;2022-12-18T04:40:05;-7.30;87.00
810;DHT22;387;48.772;9.186;2022-12-18T04:42:31;-7.30;87.00
810;DHT22;387;48.772;9.186;2022-12-18T04:44:57;-7.30;86.90
810;DHT22;387;48.772;9.186;2022-12-18T04:47:22;-7.30;86.90
810;DHT22;387;48.772;9.186;2022-12-18T04:49:48;-7.30;86.90
810;DHT22;387;48.772;9.186;2022-12-18T04:52:13;-7.30;86.90
810;DHT22;387;48.772;9.186;2022-12-18T04:54:39;-7.30;86.90
810;DHT22;387;48.772;9.186;2022-12-18T04:57:04;-7.40;86.80
810;DHT22;387;48.772;9.186;2022-12-18T04:59:30;-7.40;86.80
810;DHT22;387;48.772;9.186;2022-12-18T05:01:55;-7.30;87.00
810;DHT22;387;48.772;9.186;2022-12-18T05:04:21;-7.30;86.90
810;DHT22;387;48.772;9.186;2022-12-18T05:06:47;-7.30;86.60
810;DHT22;387;48.772;9.186;2022-12-18T05:09:12;-7.30;86.30
810;DHT22;387;48.772;9.186;2022-12-18T05:11:38;-7.40;86.30
810;DHT22;387;48.772;9.186;2022-12-18T05:14:03;-7.40;86.30
810;DHT22;387;48.772;9.186;2022-12-18T05:16:29;-7.40;86.30
810;DHT22;387;48.772;9.186;2022-12-18T05:18:54;-7.50;86.60
810;DHT22;387;48.772;9.186;2022-12-18T05:21:20;-7.50;86.80
810;DHT22;387;48.772;9.186;2022-12-18T05:23:46;-7.50;86.90
810;DHT22;387;48.772;9.186;2022-12-18T05:26:16;-7.50;87.00
810;DHT22;387;48.772;9.186;2022-12-18T05:28:41;-7.50;87.10
810;DHT22;387;48.772;9.186;2022-12-18T05:31:08;-7.40;87.40
810;DHT22;387;48.772;9.186;2022-12-18T05:33:35;-7.40;87.30
810;DHT22;387;48.772;9.186;2022-12-18T05:36:01;-7.50;87.00
810;DHT22;387;48.772;9.186;2022-12-18T05:38:29;-7.60;86.90
810;DHT22;387;48.772;9.186;2022-12-18T05:40:55;-7.60;86.90
810;DHT22;387;48.772;9.186;2022-12-18T05:43:22;-7.60;86.80
810;DHT22;387;48.772;9.186;2022-12-18T05:45:49;-7.60;86.90
810;DHT22;387;48.772;9.186;2022-12-18T05:48:15;-7.60;86.90
810;DHT22;387;48.772;9.186;2022-12-18T05:50:43;-7.60;86.80
810;DHT22;387;48.772;9.186;2022-12-18T05:53:11;-7.60;86.50
810;DHT22;387;48.772;9.186;2022-12-18T05:55:38;-7.70;86.30
810;DHT22;387;48.772;9.186;2022-12-18T05:58:06;-7.70;86.30
810;DHT22;387;48.772;9.186;2022-12-18T06:00:32;-7.70;86.30
810;DHT22;387;48.772;9.186;2022-12-18T06:03:00;-7.70;86.20
810;DHT22;387;48.772;9.186;2022-12-18T06:05:26;-7.70;85.90
810;DHT22;387;48.772;9.186;2022-12-18T06:07:52;-7.70;85.70
810;DHT22;387;48.772;9.186;2022-12-18T06:10:17;-7.80;85.50
810;DHT22;387;48.772;9.186;2022-12-18T06:12:43;-7.80;85.50
810;DHT22;387;48.772;9.186;2022-12-18T06:15:09;-7.90;85.50
810;DHT22;387;48.772;9.186;2022-12-18T06:17:36;-8.00;85.60
810;DHT22;387;48.772;9.186;2022-12-18T06:20:03;-8.00;85.70
810;DHT22;387;48.772;9.186;2022-12-18T06:22:30;-8.00;86.00
810;DHT22;387;48.772;9.186;2022-12-18T06:24:56;-8.00;86.00
810;DHT22;387;48.772;9.186;2022-12-18T06:27:21;-8.00;86.00
810;DHT22;387;48.772;9.186;2022-12-18T06:29:47;-8.10;86.00
810;DHT22;387;48.772;9.186;2022-12-18T06:32:13;-8.10;86.00
810;DHT22;387;48.772;9.186;2022-12-18T06:34:38;-8.10;86.00
810;DHT22;387;48.772;9.186;2022-12-18T06:37:04;-8.20;85.90
810;DHT22;387;48.772;9.186;2022-12-18T06:39:29;-8.30;85.90
810;DHT22;387;48.772;9.186;2022-12-18T06:41:55;-8.40;85.70
810;DHT22;387;48.772;9.186;2022-12-18T06:44:21;-8.40;85.90
810;DHT22;387;48.772;9.186;2022-12-18T06:46:47;-8.40;85.90
810;DHT22;387;48.772;9.186;2022-12-18T06:49:12;-8.40;86.00
810;DHT22;387;48.772;9.186;2022-12-18T06:51:38;-8.60;86.20
810;DHT22;387;48.772;9.186;2022-12-18T06:54:04;-8.60;86.20
810;DHT22;387;48.772;9.186;2022-12-18T06:56:30;-8.60;86.50
810;DHT22;387;48.772;9.186;2022-12-18T06:58:55;-8.50;86.60
810;DHT22;387;48.772;9.186;2022-12-18T07:01:21;-8.50;86.90
810;DHT22;387;48.772;9.186;2022-12-18T07:03:52;-8.50;86.90
810;DHT22;387;48.772;9.186;2022-12-18T07:06:19;-8.50;87.10
810;DHT22;387;48.772;9.186;2022-12-18T07:08:46;-8.50;87.10
810;DHT22;387;48.772;9.186;2022-12-18T07:11:12;-8.40;87.30
810;DHT22;387;48.772;9.186;2022-12-18T07:13:37;-8.40;87.30
810;DHT22;387;48.772;9.186;2022-12-18T07:16:15;-8.40;87.30
810;DHT22;387;48.772;9.186;2022-12-18T07:18:41;-8.40;87.10
810;DHT22;387;48.772;9.186;2022-12-18T07:21:09;-8.50;86.80
810;DHT22;387;48.772;9.186;2022-12-18T07:23:35;-8.50;86.60
810;DHT22;387;48.772;9.186;2022-12-18T07:26:03;-8.50;86.50
810;DHT22;387;48.772;9.186;2022-12-18T07:28:29;-8.50;86.30
810;DHT22;387;48.772;9.186;2022-12-18T07:30:55;-8.50;86.30
810;DHT22;387;48.772;9.186;2022-12-18T07:33:20;-8.40;86.50
810;DHT22;387;48.772;9.186;2022-12-18T07:35:46;-8.30;86.50
810;DHT22;387;48.772;9.186;2022-12-18T07:38:11;-8.30;86.50
810;DHT22;387;48.772;9.186;2022-12-18T07:40:37;-8.30;86.60
810;DHT22;387;48.772;9.186;2022-12-18T07:43:02;-8.20;86.80
810;DHT22;387;48.772;9.186;2022-12-18T07:45:28;-8.10;86.80
810;DHT22;387;48.772;9.186;2022-12-18T07:47:56;-8.10;86.60
810;DHT22;387;48.772;9.186;2022-12-18T07:50:22;-8.00;86.60
810;DHT22;387;48.772;9.186;2022-12-18T07:52:49;-7.90;86.30
810;DHT22;387;48.772;9.186;2022-12-18T07:55:14;-7.90;85.90
810;DHT22;387;48.772;9.186;2022-12-18T07:57:40;-7.90;85.60
810;DHT22;387;48.772;9.186;2022-12-18T08:00:06;-8.00;85.30
810;DHT22;387;48.772;9.186;2022-12-18T08:02:34;-8.10;85.00
810;DHT22;387;48.772;9.186;2022-12-18T08:04:59;-8.10;85.00
810;DHT22;387;48.772;9.186;2022-12-18T08:07:25;-8.10;85.00
810;DHT22;387;48.772;9.186;2022-12-18T08:09:50;-8.10;85.20
810;DHT22;387;48.772;9.186;2022-12-18T08:12:16;-8.10;85.00
810;DHT22;387;48.772;9.186;2022-12-18T08:14:42;-8.10;85.00
810;DHT22;387;48.772;9.186;2022-12-18T08:17:07;-8.10;85.20
810;DHT22;387;48.772;9.186;2022-12-18T08:19:33;-8.00;85.30
810;DHT22;387;48.772;9.186;2022-12-18T08:21:58;-8.00;85.50
810;DHT22;387;48.772;9.186;2022-12-18T08:24:24;-7.90;85.60
810;DHT22;387;48.772;9.186;2022-12-18T08:26:49;-7.80;85.90
810;DHT22;387;48.772;9.186;2022-12-18T08:29:16;-7.70;86.00
810;DHT22;387;48.772;9.186;2022-12-18T08:31:41;-7.60;86.00
810;DHT22;387;48.772;9.186;2022-12-18T08:34:08;-7.60;86.20
810;DHT22;387;48.772;9.186;2022-12-18T08:36:34;-7.40;86.00
810;DHT22;387;48.772;9.186;2022-12-18T08:38:59;-7.30;85.90
810;DHT22;387;48.772;9.186;2022-12-18T08:41:25;-7.20;85.60
810;DHT22;387;48.772;9.186;2022-12-18T08:43:50;-7.20;85.60
810;DHT22;387;48.772;9.186;2022-12-18T08:46:38;-7.10;85.50
810;DHT22;387;48.772;9.186;2022-12-18T08:49:05;-7.10;84.90
810;DHT22;387;48.772;9.186;2022-12-18T08:51:30;-7.10;84.70
810;DHT22;387;48.772;9.186;2022-12-18T08:53:56;-7.00;84.70
810;DHT22;387;48.772;9.186;2022-12-18T08:56:22;-7.00;84.70
810;DHT22;387;48.772;9.186;2022-12-18T08:58:47;-6.90;84.70
810;DHT22;387;48.772;9.186;2022-12-18T09:01:16;-6.90;84.60
810;DHT22;387;48.772;9.186;2022-12-18T09:03:41;-6.90;84.60
810;DHT22;387;48.772;9.186;2022-12-18T09:06:07;-6.80;84.60
810;DHT22;387;48.772;9.186;2022-12-18T09:08:33;-6.80;84.60
810;DHT22;387;48.772;9.186;2022-12-18T09:11:02;-6.70;84.60
810;DHT22;387;48.772;9.186;2022-12-18T09:13:27;-6.60;84.30
810;DHT22;387;48.772;9.186;2022-12-18T09:15:54;-6.60;84.10
810;DHT22;387;48.772;9.186;2022-12-18T09:18:22;-6.50;84.00
810;DHT22;387;48.772;9.186;2022-12-18T09:20:48;-6.50;84.00
810;DHT22;387;48.772;9.186;2022-12-18T09:23:17;-6.40;83.60
810;DHT22;387;48.772;9.186;2022-12-18T09:25:42;-6.30;83.10
810;DHT22;387;48.772;9.186;2022-12-18T09:28:12;-6.30;82.80
810;DHT22;387;48.772;9.186;2022-12-18T09:30:44;-6.30;82.50
810;DHT22;387;48.772;9.186;2022-12-18T09:33:10;-6.30;82.50
810;DHT22;387;48.772;9.186;2022-12-18T09:35:40;-6.30;82.70
810;DHT22;387;48.772;9.186;2022-12-18T09:38:06;-6.20;82.80
810;DHT22;387;48.772;9.186;2022-12-18T09:40:43;-6.10;82.80
810;DHT22;387;48.772;9.186;2022-12-18T09:44:00;-6.10;83.10
810;DHT22;387;48.772;9.186;2022-12-18T09:46:05;-6.00;83.30
810;DHT22;387;48.772;9.186;2022-12-18T09:48:35;-5.90;83.40
810;DHT22;387;48.772;9.186;2022-12-18T09:51:18;-5.80;83.60
810;DHT22;387;48.772;9.186;2022-12-18T09:53:50;-5.60;83.40
810;DHT22;387;48.772;9.186;2022-12-18T09:56:19;-5.60;83.10
810;DHT22;387;48.772;9.186;2022-12-18T09:58:59;-5.50;83.00
810;DHT22;387;48.772;9.186;2022-12-18T10:01:27;-5.40;83.00
810;DHT22;387;48.772;9.186;2022-12-18T10:03:53;-5.30;82.80
810;DHT22;387;48.772;9.186;2022-12-18T10:06:41;-5.20;82.80
810;DHT22;387;48.772;9.186;2022-12-18T10:20:24;-4.90;82.80
810;DHT22;387;48.772;9.186;2022-12-18T10:23:21;-4.80;83.10
810;DHT22;387;48.772;9.186;2022-12-18T10:26:10;-4.70;83.60
810;DHT22;387;48.772;9.186;2022-12-18T10:28:37;-4.60;83.70
810;DHT22;387;48.772;9.186;2022-12-18T10:31:17;-4.40;83.70
810;DHT22;387;48.772;9.186;2022-12-18T10:33:43;-4.30;83.70
810;DHT22;387;48.772;9.186;2022-12-18T10:36:09;-4.20;84.00
810;DHT22;387;48.772;9.186;2022-12-18T10:38:35;-4.00;84.10
810;DHT22;387;48.772;9.186;2022-12-18T10:41:03;-3.90;84.00
810;DHT22;387;48.772;9.186;2022-12-18T10:43:33;-3.80;83.80
810;DHT22;387;48.772;9.186;2022-12-18T10:48:56;-3.40;83.60
810;DHT22;387;48.772;9.186;2022-12-18T10:51:30;-3.10;83.60
810;DHT22;387;48.772;9.186;2022-12-18T10:53:57;-2.90;82.70
810;DHT22;387;48.772;9.186;2022-12-18T10:56:27;-2.60;81.80
810;DHT22;387;48.772;9.186;2022-12-18T10:59:07;-2.30;81.20
810;DHT22;387;48.772;9.186;2022-12-18T11:01:54;-2.10;80.00
810;DHT22;387;48.772;9.186;2022-12-18T11:04:22;-1.90;79.00
810;DHT22;387;48.772;9.186;2022-12-18T11:07:02;-1.90;78.00
810;DHT22;387;48.772;9.186;2022-12-18T11:09:35;-1.90;77.40
810;DHT22;387;48.772;9.186;2022-12-18T11:12:04;-1.90;77.40
810;DHT22;387;48.772;9.186;2022-12-18T11:17:27;-2.10;77.80
810;DHT22;387;48.772;9.186;2022-12-18T11:20:00;-2.20;78.00
810;DHT22;387;48.772;9.186;2022-12-18T11:22:31;-2.20;78.60
810;DHT22;387;48.772;9.186;2022-12-18T11:25:19;-2.20;79.00
810;DHT22;387;48.772;9.186;2022-12-18T11:27:54;-2.10;79.20
810;DHT22;387;48.772;9.186;2022-12-18T11:30:21;-2.10;78.70
810;DHT22;387;48.772;9.186;2022-12-18T11:32:49;-2.10;78.90
810;DHT22;387;48.772;9.186;2022-12-18T11:35:35;-2.10;79.00
810;DHT22;387;48.772;9.186;2022-12-18T11:38:06;-2.10;79.30
810;DHT22;387;48.772;9.186;2022-12-18T11:40:36;-2.10;79.00
810;DHT22;387;48.772;9.186;2022-12-18T11:45:49;-2.10;79.20
810;DHT22;387;48.772;9.186;2022-12-18T11:48:22;-2.10;79.30
810;DHT22;387;48.772;9.186;2022-12-18T11:50:51;-2.00;79.50
810;DHT22;387;48.772;9.186;2022-12-18T11:53:17;-2.00;78.90
810;DHT22;387;48.772;9.186;2022-12-18T12:09:37;-1.60;78.00
810;DHT22;387;48.772;9.186;2022-12-18T12:12:34;-1.60;77.80
810;DHT22;387;48.772;9.186;2022-12-18T12:15:34;-1.60;77.60
810;DHT22;387;48.772;9.186;2022-12-18T12:18:27;-1.50;77.60
810;DHT22;387;48.772;9.186;2022-12-18T12:26:33;-1.60;77.10
810;DHT22;387;48.772;9.186;2022-12-18T12:31:57;-1.60;77.00
810;DHT22;387;48.772;9.186;2022-12-18T12:40:32;-1.40;76.40
810;DHT22;387;48.772;9.186;2022-12-18T12:46:13;-1.40;76.10
810;DHT22;387;48.772;9.186;2022-12-18T12:51:29;-1.30;76.20
810;DHT22;387;48.772;9.186;2022-12-18T12:53:57;-1.20;75.90
810;DHT22;387;48.772;9.186;2022-12-18T12:56:38;-1.20;75.90
810;DHT22;387;48.772;9.186;2022-12-18T13:04:39;-0.90;76.20
810;DHT22;387;48.772;9.186;2022-12-18T13:07:21;-0.90;76.20
810;DHT22;387;48.772;9.186;2022-12-18T13:12:56;-0.80;76.20
810;DHT22;387;48.772;9.186;2022-12-18T13:15:38;-0.70;75.90
810;DHT22;387;48.772;9.186;2022-12-18T13:20:41;-0.80;75.80
810;DHT22;387;48.772;9.186;2022-12-18T13:25:59;-0.80;75.80
810;DHT22;387;48.772;9.186;2022-12-18T13:31:05;-0.80;76.10
810;DHT22;387;48.772;9.186;2022-12-18T13:33:37;-0.90;76.20
810;DHT22;387;48.772;9.186;2022-12-18T13:38:47;-0.80;76.50
810;DHT22;387;48.772;9.186;2022-12-18T13:41:22;-0.80;76.80
810;DHT22;387;48.772;9.186;2022-12-18T13:43:53;-0.60;76.80
810;DHT22;387;48.772;9.186;2022-12-18T13:49:14;-0.50;76.50
810;DHT22;387;48.772;9.186;2022-12-18T13:51:44;-0.40;76.40
810;DHT22;387;48.772;9.186;2022-12-18T13:54:34;-0.40;76.20
810;DHT22;387;48.772;9.186;2022-12-18T13:57:00;-0.30;76.20
810;DHT22;387;48.772;9.186;2022-12-18T13:59:39;-0.30;76.10
810;DHT22;387;48.772;9.186;2022-12-18T14:02:22;-0.20;76.40
810;DHT22;387;48.772;9.186;2022-12-18T14:04:50;-0.10;76.70
810;DHT22;387;48.772;9.186;2022-12-18T14:07:24;-0.10;76.10
810;DHT22;387;48.772;9.186;2022-12-18T14:09:52;-0.10;75.90
810;DHT22;387;48.772;9.186;2022-12-18T14:12:24;-0.10;76.10
810;DHT22;387;48.772;9.186;2022-12-18T14:17:46;-0.20;75.90
810;DHT22;387;48.772;9.186;2022-12-18T14:20:15;-0.20;76.10
810;DHT22;387;48.772;9.186;2022-12-18T14:22:46;-0.20;76.40
810;DHT22;387;48.772;9.186;2022-12-18T14:27:42;-0.20;76.40
810;DHT22;387;48.772;9.186;2022-12-18T14:30:24;-0.30;76.40
810;DHT22;387;48.772;9.186;2022-12-18T14:33:20;-0.30;76.80
810;DHT22;387;48.772;9.186;2022-12-18T14:36:03;-0.40;77.10
810;DHT22;387;48.772;9.186;2022-12-18T14:38:37;-0.40;77.10
810;DHT22;387;48.772;9.186;2022-12-18T14:41:11;-0.50;77.40
810;DHT22;387;48.772;9.186;2022-12-18T14:43:39;-0.60;77.70
810;DHT22;387;48.772;9.186;2022-12-18T14:46:25;-0.60;77.70
810;DHT22;387;48.772;9.186;2022-12-18T14:48:52;-0.60;78.00
810;DHT22;387;48.772;9.186;2022-12-18T14:51:20;-0.60;78.10
810;DHT22;387;48.772;9.186;2022-12-18T14:54:01;-0.70;78.30
810;DHT22;387;48.772;9.186;2022-12-18T14:56:32;-0.70;78.40
810;DHT22;387;48.772;9.186;2022-12-18T14:59:00;-0.80;78.30
810;DHT22;387;48.772;9.186;2022-12-18T15:04:35;-1.00;78.90
810;DHT22;387;48.772;9.186;2022-12-18T15:09:31;-1.10;79.30
810;DHT22;387;48.772;9.186;2022-12-18T15:11:58;-1.30;79.50
810;DHT22;387;48.772;9.186;2022-12-18T15:14:39;-1.40;80.00
810;DHT22;387;48.772;9.186;2022-12-18T15:17:40;-1.40;80.30
810;DHT22;387;48.772;9.186;2022-12-18T15:20:03;-1.50;80.50
810;DHT22;387;48.772;9.186;2022-12-18T15:22:35;-1.50;80.80
810;DHT22;387;48.772;9.186;2022-12-18T15:25:02;-1.60;80.60
810;DHT22;387;48.772;9.186;2022-12-18T15:27:31;-1.60;81.10
810;DHT22;387;48.772;9.186;2022-12-18T15:32:33;-1.70;81.50
810;DHT22;387;48.772;9.186;2022-12-18T15:37:35;-1.80;82.10
810;DHT22;387;48.772;9.186;2022-12-18T15:40:00;-1.80;82.40
810;DHT22;387;48.772;9.186;2022-12-18T15:42:28;-1.90;82.80
810;DHT22;387;48.772;9.186;2022-12-18T15:45:13;-1.90;83.10
810;DHT22;387;48.772;9.186;2022-12-18T15:47:39;-2.00;83.10
810;DHT22;387;48.772;9.186;2022-12-18T15:50:04;-2.00;83.40
810;DHT22;387;48.772;9.186;2022-12-18T15:52:45;-2.00;83.60
810;DHT22;387;48.772;9.186;2022-12-18T15:55:19;-2.10;83.60
810;DHT22;387;48.772;9.186;2022-12-18T15:58:05;-2.10;83.70
810;DHT22;387;48.772;9.186;2022-12-18T16:00:32;-2.20;83.70
810;DHT22;387;48.772;9.186;2022-12-18T16:02:59;-2.20;83.80
810;DHT22;387;48.772;9.186;2022-12-18T16:05:26;-2.30;84.00
810;DHT22;387;48.772;9.186;2022-12-18T16:07:52;-2.20;84.00
810;DHT22;387;48.772;9.186;2022-12-18T16:10:17;-2.30;84.00
810;DHT22;387;48.772;9.186;2022-12-18T16:12:43;-2.30;84.10
810;DHT22;387;48.772;9.186;2022-12-18T16:15:14;-2.30;84.30
810;DHT22;387;48.772;9.186;2022-12-18T16:17:42;-2.20;84.10
810;DHT22;387;48.772;9.186;2022-12-18T16:20:16;-2.20;84.00
810;DHT22;387;48.772;9.186;2022-12-18T16:22:43;-2.30;84.10
810;DHT22;387;48.772;9.186;2022-12-18T16:27:42;-2.40;84.60
810;DHT22;387;48.772;9.186;2022-12-18T16:30:16;-2.40;84.60
810;DHT22;387;48.772;9.186;2022-12-18T16:32:42;-2.40;84.70
810;DHT22;387;48.772;9.186;2022-12-18T16:35:13;-2.30;84.90
810;DHT22;387;48.772;9.186;2022-12-18T16:37:40;-2.40;84.70
810;DHT22;387;48.772;9.186;2022-12-18T16:40:07;-2.40;84.90
810;DHT22;387;48.772;9.186;2022-12-18T16:42:38;-2.30;84.90
810;DHT22;387;48.772;9.186;2022-12-18T16:45:05;-2.30;84.70
810;DHT22;387;48.772;9.186;2022-12-18T16:47:31;-2.20;84.30
810;DHT22;387;48.772;9.186;2022-12-18T16:49:57;-2.30;84.30
810;DHT22;387;48.772;9.186;2022-12-18T16:52:23;-2.20;84.10
810;DHT22;387;48.772;9.186;2022-12-18T16:54:48;-2.20;84.10
810;DHT22;387;48.772;9.186;2022-12-18T16:57:18;-2.10;84.30
810;DHT22;387;48.772;9.186;2022-12-18T16:59:45;-2.20;83.80
810;DHT22;387;48.772;9.186;2022-12-18T17:02:22;-2.20;83.70
810;DHT22;387;48.772;9.186;2022-12-18T17:04:48;-2.20;83.80
810;DHT22;387;48.772;9.186;2022-12-18T17:07:14;-2.30;84.00
810;DHT22;387;48.772;9.186;2022-12-18T17:09:40;-2.20;84.10
810;DHT22;387;48.772;9.186;2022-12-18T17:12:06;-2.20;84.10
810;DHT22;387;48.772;9.186;2022-12-18T17:14:32;-2.20;83.80
810;DHT22;387;48.772;9.186;2022-12-18T17:16:58;-2.20;83.70
810;DHT22;387;48.772;9.186;2022-12-18T17:19:27;-2.20;83.60
810;DHT22;387;48.772;9.186;2022-12-18T17:21:53;-2.10;83.40
810;DHT22;387;48.772;9.186;2022-12-18T17:24:20;-2.20;83.00
810;DHT22;387;48.772;9.186;2022-12-18T17:26:46;-2.30;83.00
810;DHT22;387;48.772;9.186;2022-12-18T17:29:18;-2.40;83.10
810;DHT22;387;48.772;9.186;2022-12-18T17:31:45;-2.30;83.60
810;DHT22;387;48.772;9.186;2022-12-18T17:34:11;-2.30;83.80
810;DHT22;387;48.772;9.186;2022-12-18T17:36:37;-2.20;84.00
810;DHT22;387;48.772;9.186;2022-12-18T17:39:04;-2.10;83.80
810;DHT22;387;48.772;9.186;2022-12-18T17:41:31;-2.10;83.80
810;DHT22;387;48.772;9.186;2022-12-18T17:43:57;-2.10;83.80
810;DHT22;387;48.772;9.186;2022-12-18T17:46:24;-2.10;83.80
810;DHT22;387;48.772;9.186;2022-12-18T17:48:50;-2.10;84.00
810;DHT22;387;48.772;9.186;2022-12-18T17:51:16;-2.10;84.00
810;DHT22;387;48.772;9.186;2022-12-18T17:53:43;-2.00;83.70
810;DHT22;387;48.772;9.186;2022-12-18T17:56:15;-2.00;83.40
810;DHT22;387;48.772;9.186;2022-12-18T17:58:41;-1.90;83.30
810;DHT22;387;48.772;9.186;2022-12-18T18:01:14;-1.90;82.80
810;DHT22;387;48.772;9.186;2022-12-18T18:03:40;-1.90;82.20
810;DHT22;387;48.772;9.186;2022-12-18T18:06:06;-1.90;82.20
810;DHT22;387;48.772;9.186;2022-12-18T18:08:33;-2.00;82.20
810;DHT22;387;48.772;9.186;2022-12-18T18:11:03;-2.00;82.40
810;DHT22;387;48.772;9.186;2022-12-18T18:13:49;-2.00;82.50
810;DHT22;387;48.772;9.186;2022-12-18T18:16:39;-1.90;82.20
810;DHT22;387;48.772;9.186;2022-12-18T18:19:08;-1.90;82.10
810;DHT22;387;48.772;9.186;2022-12-18T18:21:37;-1.90;81.80
810;DHT22;387;48.772;9.186;2022-12-18T18:24:03;-1.90;81.80
810;DHT22;387;48.772;9.186;2022-12-18T18:26:31;-1.90;81.50
810;DHT22;387;48.772;9.186;2022-12-18T18:29:01;-1.90;81.70
810;DHT22;387;48.772;9.186;2022-12-18T18:31:28;-1.90;81.70
810;DHT22;387;48.772;9.186;2022-12-18T18:33:54;-1.80;81.40
810;DHT22;387;48.772;9.186;2022-12-18T18:36:20;-1.80;81.40
810;DHT22;387;48.772;9.186;2022-12-18T18:38:47;-1.80;81.40
810;DHT22;387;48.772;9.186;2022-12-18T18:41:12;-1.80;81.40
810;DHT22;387;48.772;9.186;2022-12-18T18:43:38;-1.70;81.40
810;DHT22;387;48.772;9.186;2022-12-18T18:46:04;-1.70;81.20
810;DHT22;387;48.772;9.186;2022-12-18T18:48:32;-1.60;81.10
810;DHT22;387;48.772;9.186;2022-12-18T18:51:09;-1.60;80.90
810;DHT22;387;48.772;9.186;2022-12-18T18:53:40;-1.70;80.90
810;DHT22;387;48.772;9.186;2022-12-18T18:56:07;-1.70;80.80